Washington — WDC3825 — position and weather

sailwx.info

Track history (hours):
 
Tides and Currents Weather Stations Pressure Air Temp Water Temp Dewpoint Dewpoint Depression Visibility Wind Speed Wind Dir Waves Ship Positions

Washington

Owner: Peoria Harbor Service, Creve Coeur, IL. More information available from US FCC via Universal Licensing System.

Last reported at 2014-Dec-22 13:33 UTC. Time now 2014-Dec-22 14:10 UTC.
Position N 45°39' W 122°45'.

Length 29 m; draft 5 m.

Type: Tug. MMSI: 367530040.

Date/timePositionNaut miles runAvg speedWind from/ knotsBaromVisibWave heightAir tempDewpointWater temp
2014-Dec-22 13:33N 45°39' W 122°45'0 0.0
2014-Dec-22 12:33N 45°39' W 122°45'0 0.0
2014-Dec-22 11:33N 45°39' W 122°45'0 0.0
2014-Dec-22 10:33N 45°39' W 122°45'0 0.0
2014-Dec-22 09:33N 45°39' W 122°45'1 0.9
2014-Dec-22 08:33N 45°38' W 122°44'0 0.4
2014-Dec-22 07:33N 45°38' W 122°43'1 1.3
2014-Dec-22 06:33N 45°39' W 122°45'0 0.0
2014-Dec-22 05:33N 45°39' W 122°45'0 0.0
2014-Dec-22 04:33N 45°39' W 122°45'2 1.7
2014-Dec-22 03:33N 45°38' W 122°43'0 0.4
2014-Dec-22 02:33N 45°38' W 122°43'1 1.2
2014-Dec-22 01:33N 45°39' W 122°45'0 0.1
2014-Dec-22 00:33N 45°39' W 122°45'0 0.0
2014-Dec-21 23:33N 45°39' W 122°45'0 0.0
2014-Dec-21 22:32N 45°39' W 122°45'0 0.0
2014-Dec-21 21:33N 45°39' W 122°45'0 0.0
2014-Dec-21 20:33N 45°39' W 122°45'0 0.0
2014-Dec-21 19:33N 45°39' W 122°45'0 0.0
2014-Dec-21 18:33N 45°39' W 122°45'0 0.0
2014-Dec-21 17:33N 45°39' W 122°45'0 0.0
2014-Dec-21 16:33N 45°39' W 122°45'2 2.0
2014-Dec-21 15:33N 45°38' W 122°42'2 2.2
2014-Dec-21 14:33N 45°39' W 122°45'3 3.2
2014-Dec-21 13:33N 45°36' W 122°46'0 0.2
2014-Dec-21 12:33N 45°36' W 122°47'2 2.4
2014-Dec-21 11:33N 45°34' W 122°44'1 1.4
2014-Dec-21 10:33N 45°33' W 122°42'0 0.3
2014-Dec-21 09:33N 45°33' W 122°43'1 0.6
2014-Dec-21 08:33N 45°34' W 122°44'0 0.0
2014-Dec-21 07:33N 45°34' W 122°44'0 0.0
2014-Dec-21 06:33N 45°34' W 122°44'0 0.0
2014-Dec-21 05:33N 45°34' W 122°44'0 0.0
2014-Dec-21 04:33N 45°34' W 122°44'0 0.0
2014-Dec-21 03:33N 45°34' W 122°44'0 0.0
2014-Dec-21 02:33N 45°34' W 122°44'0 0.0
2014-Dec-21 01:33N 45°34' W 122°44'0 0.0
2014-Dec-21 00:33N 45°34' W 122°44'0 0.0
2014-Dec-20 23:33N 45°34' W 122°44'0 0.0
2014-Dec-20 22:33N 45°34' W 122°44'0 0.0
2014-Dec-20 21:33N 45°34' W 122°44'0 0.0
2014-Dec-20 20:33N 45°34' W 122°44'0 0.0
2014-Dec-20 19:33N 45°34' W 122°44'0 0.0
2014-Dec-20 18:33N 45°34' W 122°44'0 0.0
2014-Dec-20 17:33N 45°34' W 122°44'0 0.0
2014-Dec-20 16:33N 45°34' W 122°44'0 0.0
2014-Dec-20 15:33N 45°34' W 122°44'0 0.0
2014-Dec-20 14:33N 45°34' W 122°44'0 0.0
2014-Dec-20 13:33N 45°34' W 122°44'0 0.0
2014-Dec-20 12:33N 45°34' W 122°44'0 0.0
2014-Dec-20 11:33N 45°34' W 122°44'0 0.0
2014-Dec-20 10:33N 45°34' W 122°44'0 0.0
2014-Dec-20 09:33N 45°34' W 122°44'0 0.0
2014-Dec-20 08:33N 45°34' W 122°44'0 0.0
2014-Dec-20 07:33N 45°34' W 122°44'0 0.0
2014-Dec-20 06:33N 45°34' W 122°44'0 0.0
2014-Dec-20 05:33N 45°34' W 122°44'0 0.0
2014-Dec-20 04:33N 45°34' W 122°44'0 0.0
2014-Dec-20 03:33N 45°34' W 122°44'0 0.0
2014-Dec-20 02:33N 45°34' W 122°44'0 0.0
2014-Dec-20 01:33N 45°34' W 122°44'0 0.0
2014-Dec-20 00:33N 45°34' W 122°44'0 0.0
2014-Dec-19 23:33N 45°34' W 122°44'0 0.0
2014-Dec-19 22:33N 45°34' W 122°44'0 0.0
2014-Dec-19 21:33N 45°34' W 122°44'0 0.0
2014-Dec-19 20:33N 45°34' W 122°44'0 0.0
2014-Dec-19 19:33N 45°34' W 122°44'0 0.0
2014-Dec-19 18:33N 45°34' W 122°44'0 0.0
2014-Dec-19 17:33N 45°34' W 122°44'0 0.0
2014-Dec-19 16:33N 45°34' W 122°44'0 0.0
2014-Dec-19 15:33N 45°34' W 122°44'0 0.0
2014-Dec-19 14:33N 45°34' W 122°44'0 0.0
2014-Dec-19 13:33N 45°34' W 122°44'0 0.0
2014-Dec-19 12:33N 45°34' W 122°44'0 0.0
2014-Dec-19 11:33N 45°34' W 122°44'0 0.0
2014-Dec-19 10:33N 45°34' W 122°44'0 0.0
2014-Dec-19 09:33N 45°34' W 122°44'0 0.0
2014-Dec-19 08:33N 45°34' W 122°44'0 0.0
2014-Dec-19 07:33N 45°34' W 122°44'0 0.0
2014-Dec-19 06:33N 45°34' W 122°44'0 0.0
2014-Dec-19 05:33N 45°34' W 122°44'4 3.6
2014-Dec-19 04:33N 45°36' W 122°47'3 2.9
2014-Dec-19 03:33N 45°39' W 122°44'2 1.9
2014-Dec-19 02:33N 45°38' W 122°42'2 2.4
2014-Dec-19 01:33N 45°39' W 122°45'1 1.4
2014-Dec-19 00:33N 45°40' W 122°46'2 1.8
2014-Dec-18 23:33N 45°38' W 122°45'1 0.7
2014-Dec-18 22:33N 45°39' W 122°45'0 0.3
2014-Dec-18 21:33N 45°39' W 122°45'0 0.0
2014-Dec-18 20:33N 45°39' W 122°45'0 0.0
2014-Dec-18 19:33N 45°39' W 122°45'1 0.8
2014-Dec-18 18:33N 45°39' W 122°46'6 5.6
2014-Dec-18 17:33N 45°34' W 122°43'0 0.4
2014-Dec-18 16:33N 45°34' W 122°44'0 0.0
2014-Dec-18 15:33N 45°34' W 122°44'0 0.0
2014-Dec-18 14:33N 45°34' W 122°44'0 0.0
2014-Dec-18 13:33N 45°34' W 122°44'0 0.0
2014-Dec-18 12:33N 45°34' W 122°44'0 0.0
2014-Dec-18 11:31N 45°34' W 122°44'0 0.0
2014-Dec-18 10:33N 45°34' W 122°44'0 0.0
2014-Dec-18 09:33N 45°34' W 122°44'0 0.0
2014-Dec-18 08:33N 45°34' W 122°44'0 0.0
2014-Dec-18 07:32N 45°34' W 122°44'0 0.0
2014-Dec-18 06:33N 45°34' W 122°44'0 0.0
2014-Dec-18 05:33N 45°34' W 122°44'0 0.0
2014-Dec-18 04:33N 45°34' W 122°44'0 0.0
2014-Dec-18 03:33N 45°34' W 122°44'1 0.7
2014-Dec-18 02:34N 45°33' W 122°43'2 1.8
2014-Dec-18 01:33N 45°32' W 122°41'3 2.6
2014-Dec-18 00:34N 45°34' W 122°43'3 2.7
2014-Dec-17 23:34N 45°32' W 122°41'3 2.6
2014-Dec-17 22:31N 45°34' W 122°44'0 0.0
2014-Dec-17 21:28N 45°34' W 122°44'0 0.0
2014-Dec-17 20:31N 45°34' W 122°44'0 0.0
2014-Dec-17 19:13N 45°34' W 122°44'0 0.0
2014-Dec-17 18:28N 45°34' W 122°44'0 0.0
2014-Dec-17 17:34N 45°34' W 122°44'0 0.0
2014-Dec-17 16:28N 45°34' W 122°44'0 0.0
2014-Dec-17 15:28N 45°34' W 122°44'0 0.0
2014-Dec-17 14:31N 45°34' W 122°44'0 0.0
2014-Dec-17 13:31N 45°34' W 122°44'0 0.0
2014-Dec-17 12:31N 45°34' W 122°44'0 0.0
2014-Dec-17 11:28N 45°34' W 122°44'0 0.0
2014-Dec-17 10:31N 45°34' W 122°44'0 0.0
2014-Dec-17 09:31N 45°34' W 122°44'0 0.0
2014-Dec-17 08:31N 45°34' W 122°44'0 0.0
2014-Dec-17 07:28N 45°34' W 122°44'0 0.0
2014-Dec-17 06:31N 45°34' W 122°44'0 0.0
2014-Dec-17 05:31N 45°34' W 122°44'0 0.0
2014-Dec-17 04:31N 45°34' W 122°44'0 0.0
2014-Dec-17 03:31N 45°34' W 122°44'0 0.0
2014-Dec-17 02:31N 45°34' W 122°44'0 0.0
2014-Dec-17 01:28N 45°34' W 122°44'0 0.0
2014-Dec-17 00:31N 45°34' W 122°44'0 0.0
2014-Dec-16 23:34N 45°34' W 122°44'1 0.7
2014-Dec-16 22:33N 45°33' W 122°43'1 0.7
2014-Dec-16 21:30N 45°34' W 122°44'0 0.0
2014-Dec-16 20:33N 45°34' W 122°44'0 0.0
2014-Dec-16 19:33N 45°34' W 122°44'0 0.0
2014-Dec-16 18:33N 45°34' W 122°44'0 0.0
2014-Dec-16 17:33N 45°34' W 122°44'0 0.0
2014-Dec-16 16:27N 45°34' W 122°44'0 0.0
2014-Dec-16 15:27N 45°34' W 122°44'0 0.0
2014-Dec-16 14:33N 45°34' W 122°44'0 0.0
2014-Dec-16 13:33N 45°34' W 122°44'0 0.0
2014-Dec-16 12:33N 45°34' W 122°44'0 0.0
2014-Dec-16 11:33N 45°34' W 122°44'0 0.0
2014-Dec-16 10:33N 45°34' W 122°44'0 0.0
2014-Dec-16 09:33N 45°34' W 122°44'0 0.0
2014-Dec-16 08:33N 45°34' W 122°44'0 0.0
2014-Dec-16 07:33N 45°34' W 122°44'0 0.0
2014-Dec-16 06:33N 45°34' W 122°44'0 0.0
2014-Dec-16 05:33N 45°34' W 122°44'0 0.0
2014-Dec-16 04:28N 45°34' W 122°44'0 0.0
2014-Dec-16 03:28N 45°34' W 122°44'0 0.0
2014-Dec-16 02:16N 45°34' W 122°44'0 0.0
2014-Dec-16 01:30N 45°34' W 122°44'0 0.0
2014-Dec-16 00:16N 45°34' W 122°44'0 0.0
2014-Dec-15 23:33N 45°34' W 122°44'0 0.0
2014-Dec-15 22:27N 45°34' W 122°44'0 0.0
2014-Dec-15 21:33N 45°34' W 122°44'0 0.0
2014-Dec-15 20:27N 45°34' W 122°44'0 0.0
2014-Dec-15 19:33N 45°34' W 122°44'0 0.0
2014-Dec-15 18:33N 45°34' W 122°44'0 0.0
2014-Dec-15 17:33N 45°34' W 122°44'0 0.0
2014-Dec-15 16:33N 45°34' W 122°44'0 0.0
2014-Dec-15 15:33N 45°34' W 122°44'0 0.0
2014-Dec-15 14:33N 45°34' W 122°44'0 0.0
2014-Dec-15 13:33N 45°34' W 122°44'0 0.0
2014-Dec-15 12:33N 45°34' W 122°44'0 0.0
2014-Dec-15 11:33N 45°34' W 122°44'0 0.0
2014-Dec-15 10:33N 45°34' W 122°44'0 0.0
2014-Dec-15 09:33N 45°34' W 122°44'0 0.0
2014-Dec-15 08:33N 45°34' W 122°44'0 0.0
2014-Dec-15 07:33N 45°34' W 122°44'0 0.0
2014-Dec-15 06:33N 45°34' W 122°44'0 0.0
2014-Dec-15 05:33N 45°34' W 122°44'0 0.0
2014-Dec-15 04:33N 45°34' W 122°44'0 0.0
2014-Dec-15 03:33N 45°34' W 122°44'0 0.0
2014-Dec-15 02:33N 45°34' W 122°44'0 0.0
2014-Dec-15 01:33N 45°34' W 122°44'0 0.0
2014-Dec-15 00:27N 45°34' W 122°44'0 0.0
2014-Dec-14 23:33N 45°34' W 122°44'0 0.0
2014-Dec-14 22:33N 45°34' W 122°44'0 0.0
2014-Dec-14 21:33N 45°34' W 122°44'0 0.0
2014-Dec-14 20:33N 45°34' W 122°44'0 0.0
2014-Dec-14 19:33N 45°34' W 122°44'0 0.0
2014-Dec-14 18:33N 45°34' W 122°44'0 0.0
2014-Dec-14 17:33N 45°34' W 122°44'0 0.0
2014-Dec-14 16:33N 45°34' W 122°44'0 0.0
2014-Dec-14 15:33N 45°34' W 122°44'0 0.0
2014-Dec-14 14:33N 45°34' W 122°44'0 0.0
2014-Dec-14 13:33N 45°34' W 122°44'0 0.0
2014-Dec-14 12:33N 45°34' W 122°44'0 0.0
2014-Dec-14 11:33N 45°34' W 122°44'0 0.0
2014-Dec-14 10:33N 45°34' W 122°44'0 0.0
2014-Dec-14 09:33N 45°34' W 122°44'0 0.0
2014-Dec-14 08:33N 45°34' W 122°44'0 0.0
2014-Dec-14 07:33N 45°34' W 122°44'0 0.0
2014-Dec-14 06:33N 45°34' W 122°44'0 0.0
2014-Dec-14 05:33N 45°34' W 122°44'0 0.0
2014-Dec-14 04:33N 45°34' W 122°44'0 0.0
2014-Dec-14 03:33N 45°34' W 122°44'0 0.0
2014-Dec-14 02:33N 45°34' W 122°44'0 0.0
2014-Dec-14 01:27N 45°34' W 122°44'0 0.0
2014-Dec-14 00:33N 45°34' W 122°44'0 0.0
2014-Dec-13 23:27N 45°34' W 122°44'0 0.0
2014-Dec-13 22:33N 45°34' W 122°44'0 0.0
2014-Dec-13 21:33N 45°34' W 122°44'0 0.0
2014-Dec-13 20:33N 45°34' W 122°44'0 0.0
2014-Dec-13 19:33N 45°34' W 122°44'0 0.0
2014-Dec-13 18:33N 45°34' W 122°44'0 0.0
2014-Dec-13 17:33N 45°34' W 122°44'0 0.0
2014-Dec-13 16:33N 45°34' W 122°44'0 0.0
2014-Dec-13 15:33N 45°34' W 122°44'0 0.0
2014-Dec-13 14:33N 45°34' W 122°44'0 0.0
2014-Dec-13 13:33N 45°34' W 122°44'0 0.0
2014-Dec-13 12:33N 45°34' W 122°44'0 0.0
2014-Dec-13 11:33N 45°34' W 122°44'0 0.0
2014-Dec-13 10:33N 45°34' W 122°44'0 0.0
2014-Dec-13 09:33N 45°34' W 122°44'0 0.0
2014-Dec-13 08:33N 45°34' W 122°44'0 0.0
2014-Dec-13 07:33N 45°34' W 122°44'0 0.0
2014-Dec-13 06:33N 45°34' W 122°44'0 0.0
2014-Dec-13 05:33N 45°34' W 122°44'0 0.0
2014-Dec-13 04:33N 45°34' W 122°44'0 0.0
2014-Dec-13 03:27N 45°34' W 122°44'0 0.0
2014-Dec-13 02:33N 45°34' W 122°44'0 0.0
2014-Dec-13 01:27N 45°34' W 122°44'0 0.0
2014-Dec-13 00:33N 45°34' W 122°44'0 0.0
2014-Dec-12 23:30N 45°34' W 122°44'0 0.0
2014-Dec-12 22:33N 45°34' W 122°44'0 0.0
2014-Dec-12 21:33N 45°34' W 122°44'0 0.0
2014-Dec-12 20:33N 45°34' W 122°44'0 0.0
2014-Dec-12 19:33N 45°34' W 122°44'0 0.0
2014-Dec-12 18:33N 45°34' W 122°44'1 1.1
2014-Dec-12 17:33N 45°34' W 122°45'4 4.0
2014-Dec-12 16:31N 45°39' W 122°45'0 0.0
2014-Dec-12 15:25N 45°39' W 122°45'0 0.0
2014-Dec-12 14:28N 45°39' W 122°45'  
Track history (hours):
 
Tides and Currents Weather Stations Pressure Air Temp Water Temp Dewpoint Dewpoint Depression Visibility Wind Speed Wind Dir Waves Ship Positions

Washington

Owner: Peoria Harbor Service, Creve Coeur, IL. More information available from US FCC via Universal Licensing System.

Last reported at 2014-Dec-22 13:33 UTC. Time now 2014-Dec-22 14:10 UTC.
Position N 45°39' W 122°45'.

Length 29 m; draft 5 m.

Type: Tug. MMSI: 367530040.

Date/timePositionNaut miles runAvg speedWind from/ knotsBaromVisibWave heightAir tempDewpointWater temp
2014-Dec-22 13:33N 45°39' W 122°45'0 0.0
2014-Dec-22 12:33N 45°39' W 122°45'0 0.0
2014-Dec-22 11:33N 45°39' W 122°45'0 0.0
2014-Dec-22 10:33N 45°39' W 122°45'0 0.0
2014-Dec-22 09:33N 45°39' W 122°45'1 0.9
2014-Dec-22 08:33N 45°38' W 122°44'0 0.4
2014-Dec-22 07:33N 45°38' W 122°43'1 1.3
2014-Dec-22 06:33N 45°39' W 122°45'0 0.0
2014-Dec-22 05:33N 45°39' W 122°45'0 0.0
2014-Dec-22 04:33N 45°39' W 122°45'2 1.7
2014-Dec-22 03:33N 45°38' W 122°43'0 0.4
2014-Dec-22 02:33N 45°38' W 122°43'1 1.2
2014-Dec-22 01:33N 45°39' W 122°45'0 0.1
2014-Dec-22 00:33N 45°39' W 122°45'0 0.0
2014-Dec-21 23:33N 45°39' W 122°45'0 0.0
2014-Dec-21 22:32N 45°39' W 122°45'0 0.0
2014-Dec-21 21:33N 45°39' W 122°45'0 0.0
2014-Dec-21 20:33N 45°39' W 122°45'0 0.0
2014-Dec-21 19:33N 45°39' W 122°45'0 0.0
2014-Dec-21 18:33N 45°39' W 122°45'0 0.0
2014-Dec-21 17:33N 45°39' W 122°45'0 0.0
2014-Dec-21 16:33N 45°39' W 122°45'2 2.0
2014-Dec-21 15:33N 45°38' W 122°42'2 2.2
2014-Dec-21 14:33N 45°39' W 122°45'3 3.2
2014-Dec-21 13:33N 45°36' W 122°46'0 0.2
2014-Dec-21 12:33N 45°36' W 122°47'2 2.4
2014-Dec-21 11:33N 45°34' W 122°44'1 1.4
2014-Dec-21 10:33N 45°33' W 122°42'0 0.3
2014-Dec-21 09:33N 45°33' W 122°43'1 0.6
2014-Dec-21 08:33N 45°34' W 122°44'0 0.0
2014-Dec-21 07:33N 45°34' W 122°44'0 0.0
2014-Dec-21 06:33N 45°34' W 122°44'0 0.0
2014-Dec-21 05:33N 45°34' W 122°44'0 0.0
2014-Dec-21 04:33N 45°34' W 122°44'0 0.0
2014-Dec-21 03:33N 45°34' W 122°44'0 0.0
2014-Dec-21 02:33N 45°34' W 122°44'0 0.0
2014-Dec-21 01:33N 45°34' W 122°44'0 0.0
2014-Dec-21 00:33N 45°34' W 122°44'0 0.0
2014-Dec-20 23:33N 45°34' W 122°44'0 0.0
2014-Dec-20 22:33N 45°34' W 122°44'0 0.0
2014-Dec-20 21:33N 45°34' W 122°44'0 0.0
2014-Dec-20 20:33N 45°34' W 122°44'0 0.0
2014-Dec-20 19:33N 45°34' W 122°44'0 0.0
2014-Dec-20 18:33N 45°34' W 122°44'0 0.0
2014-Dec-20 17:33N 45°34' W 122°44'0 0.0
2014-Dec-20 16:33N 45°34' W 122°44'0 0.0
2014-Dec-20 15:33N 45°34' W 122°44'0 0.0
2014-Dec-20 14:33N 45°34' W 122°44'0 0.0
2014-Dec-20 13:33N 45°34' W 122°44'0 0.0
2014-Dec-20 12:33N 45°34' W 122°44'0 0.0
2014-Dec-20 11:33N 45°34' W 122°44'0 0.0
2014-Dec-20 10:33N 45°34' W 122°44'0 0.0
2014-Dec-20 09:33N 45°34' W 122°44'0 0.0
2014-Dec-20 08:33N 45°34' W 122°44'0 0.0
2014-Dec-20 07:33N 45°34' W 122°44'0 0.0
2014-Dec-20 06:33N 45°34' W 122°44'0 0.0
2014-Dec-20 05:33N 45°34' W 122°44'0 0.0
2014-Dec-20 04:33N 45°34' W 122°44'0 0.0
2014-Dec-20 03:33N 45°34' W 122°44'0 0.0
2014-Dec-20 02:33N 45°34' W 122°44'0 0.0
2014-Dec-20 01:33N 45°34' W 122°44'0 0.0
2014-Dec-20 00:33N 45°34' W 122°44'0 0.0
2014-Dec-19 23:33N 45°34' W 122°44'0 0.0
2014-Dec-19 22:33N 45°34' W 122°44'0 0.0
2014-Dec-19 21:33N 45°34' W 122°44'0 0.0
2014-Dec-19 20:33N 45°34' W 122°44'0 0.0
2014-Dec-19 19:33N 45°34' W 122°44'0 0.0
2014-Dec-19 18:33N 45°34' W 122°44'0 0.0
2014-Dec-19 17:33N 45°34' W 122°44'0 0.0
2014-Dec-19 16:33N 45°34' W 122°44'0 0.0
2014-Dec-19 15:33N 45°34' W 122°44'0 0.0
2014-Dec-19 14:33N 45°34' W 122°44'0 0.0
2014-Dec-19 13:33N 45°34' W 122°44'0 0.0
2014-Dec-19 12:33N 45°34' W 122°44'0 0.0
2014-Dec-19 11:33N 45°34' W 122°44'0 0.0
2014-Dec-19 10:33N 45°34' W 122°44'0 0.0
2014-Dec-19 09:33N 45°34' W 122°44'0 0.0
2014-Dec-19 08:33N 45°34' W 122°44'0 0.0
2014-Dec-19 07:33N 45°34' W 122°44'0 0.0
2014-Dec-19 06:33N 45°34' W 122°44'0 0.0
2014-Dec-19 05:33N 45°34' W 122°44'4 3.6
2014-Dec-19 04:33N 45°36' W 122°47'3 2.9
2014-Dec-19 03:33N 45°39' W 122°44'2 1.9
2014-Dec-19 02:33N 45°38' W 122°42'2 2.4
2014-Dec-19 01:33N 45°39' W 122°45'1 1.4
2014-Dec-19 00:33N 45°40' W 122°46'2 1.8
2014-Dec-18 23:33N 45°38' W 122°45'1 0.7
2014-Dec-18 22:33N 45°39' W 122°45'0 0.3
2014-Dec-18 21:33N 45°39' W 122°45'0 0.0
2014-Dec-18 20:33N 45°39' W 122°45'0 0.0
2014-Dec-18 19:33N 45°39' W 122°45'1 0.8
2014-Dec-18 18:33N 45°39' W 122°46'6 5.6
2014-Dec-18 17:33N 45°34' W 122°43'0 0.4
2014-Dec-18 16:33N 45°34' W 122°44'0 0.0
2014-Dec-18 15:33N 45°34' W 122°44'0 0.0
2014-Dec-18 14:33N 45°34' W 122°44'0 0.0
2014-Dec-18 13:33N 45°34' W 122°44'0 0.0
2014-Dec-18 12:33N 45°34' W 122°44'0 0.0
2014-Dec-18 11:31N 45°34' W 122°44'0 0.0
2014-Dec-18 10:33N 45°34' W 122°44'0 0.0
2014-Dec-18 09:33N 45°34' W 122°44'0 0.0
2014-Dec-18 08:33N 45°34' W 122°44'0 0.0
2014-Dec-18 07:32N 45°34' W 122°44'0 0.0
2014-Dec-18 06:33N 45°34' W 122°44'0 0.0
2014-Dec-18 05:33N 45°34' W 122°44'0 0.0
2014-Dec-18 04:33N 45°34' W 122°44'0 0.0
2014-Dec-18 03:33N 45°34' W 122°44'1 0.7
2014-Dec-18 02:34N 45°33' W 122°43'2 1.8
2014-Dec-18 01:33N 45°32' W 122°41'3 2.6
2014-Dec-18 00:34N 45°34' W 122°43'3 2.7
2014-Dec-17 23:34N 45°32' W 122°41'3 2.6
2014-Dec-17 22:31N 45°34' W 122°44'0 0.0
2014-Dec-17 21:28N 45°34' W 122°44'0 0.0
2014-Dec-17 20:31N 45°34' W 122°44'0 0.0
2014-Dec-17 19:13N 45°34' W 122°44'0 0.0
2014-Dec-17 18:28N 45°34' W 122°44'0 0.0
2014-Dec-17 17:34N 45°34' W 122°44'0 0.0
2014-Dec-17 16:28N 45°34' W 122°44'0 0.0
2014-Dec-17 15:28N 45°34' W 122°44'0 0.0
2014-Dec-17 14:31N 45°34' W 122°44'0 0.0
2014-Dec-17 13:31N 45°34' W 122°44'0 0.0
2014-Dec-17 12:31N 45°34' W 122°44'0 0.0
2014-Dec-17 11:28N 45°34' W 122°44'0 0.0
2014-Dec-17 10:31N 45°34' W 122°44'0 0.0
2014-Dec-17 09:31N 45°34' W 122°44'0 0.0
2014-Dec-17 08:31N 45°34' W 122°44'0 0.0
2014-Dec-17 07:28N 45°34' W 122°44'0 0.0
2014-Dec-17 06:31N 45°34' W 122°44'0 0.0
2014-Dec-17 05:31N 45°34' W 122°44'0 0.0
2014-Dec-17 04:31N 45°34' W 122°44'0 0.0
2014-Dec-17 03:31N 45°34' W 122°44'0 0.0
2014-Dec-17 02:31N 45°34' W 122°44'0 0.0
2014-Dec-17 01:28N 45°34' W 122°44'0 0.0
2014-Dec-17 00:31N 45°34' W 122°44'0 0.0
2014-Dec-16 23:34N 45°34' W 122°44'1 0.7
2014-Dec-16 22:33N 45°33' W 122°43'1 0.7
2014-Dec-16 21:30N 45°34' W 122°44'0 0.0
2014-Dec-16 20:33N 45°34' W 122°44'0 0.0
2014-Dec-16 19:33N 45°34' W 122°44'0 0.0
2014-Dec-16 18:33N 45°34' W 122°44'0 0.0
2014-Dec-16 17:33N 45°34' W 122°44'0 0.0
2014-Dec-16 16:27N 45°34' W 122°44'0 0.0
2014-Dec-16 15:27N 45°34' W 122°44'0 0.0
2014-Dec-16 14:33N 45°34' W 122°44'0 0.0
2014-Dec-16 13:33N 45°34' W 122°44'0 0.0
2014-Dec-16 12:33N 45°34' W 122°44'0 0.0
2014-Dec-16 11:33N 45°34' W 122°44'0 0.0
2014-Dec-16 10:33N 45°34' W 122°44'0 0.0
2014-Dec-16 09:33N 45°34' W 122°44'0 0.0
2014-Dec-16 08:33N 45°34' W 122°44'0 0.0
2014-Dec-16 07:33N 45°34' W 122°44'0 0.0
2014-Dec-16 06:33N 45°34' W 122°44'0 0.0
2014-Dec-16 05:33N 45°34' W 122°44'0 0.0
2014-Dec-16 04:28N 45°34' W 122°44'0 0.0
2014-Dec-16 03:28N 45°34' W 122°44'0 0.0
2014-Dec-16 02:16N 45°34' W 122°44'0 0.0
2014-Dec-16 01:30N 45°34' W 122°44'0 0.0
2014-Dec-16 00:16N 45°34' W 122°44'0 0.0
2014-Dec-15 23:33N 45°34' W 122°44'0 0.0
2014-Dec-15 22:27N 45°34' W 122°44'0 0.0
2014-Dec-15 21:33N 45°34' W 122°44'0 0.0
2014-Dec-15 20:27N 45°34' W 122°44'0 0.0
2014-Dec-15 19:33N 45°34' W 122°44'0 0.0
2014-Dec-15 18:33N 45°34' W 122°44'0 0.0
2014-Dec-15 17:33N 45°34' W 122°44'0 0.0
2014-Dec-15 16:33N 45°34' W 122°44'0 0.0
2014-Dec-15 15:33N 45°34' W 122°44'0 0.0
2014-Dec-15 14:33N 45°34' W 122°44'0 0.0
2014-Dec-15 13:33N 45°34' W 122°44'0 0.0
2014-Dec-15 12:33N 45°34' W 122°44'0 0.0
2014-Dec-15 11:33N 45°34' W 122°44'0 0.0
2014-Dec-15 10:33N 45°34' W 122°44'0 0.0
2014-Dec-15 09:33N 45°34' W 122°44'0 0.0
2014-Dec-15 08:33N 45°34' W 122°44'0 0.0
2014-Dec-15 07:33N 45°34' W 122°44'0 0.0
2014-Dec-15 06:33N 45°34' W 122°44'0 0.0
2014-Dec-15 05:33N 45°34' W 122°44'0 0.0
2014-Dec-15 04:33N 45°34' W 122°44'0 0.0
2014-Dec-15 03:33N 45°34' W 122°44'0 0.0
2014-Dec-15 02:33N 45°34' W 122°44'0 0.0
2014-Dec-15 01:33N 45°34' W 122°44'0 0.0
2014-Dec-15 00:27N 45°34' W 122°44'0 0.0
2014-Dec-14 23:33N 45°34' W 122°44'0 0.0
2014-Dec-14 22:33N 45°34' W 122°44'0 0.0
2014-Dec-14 21:33N 45°34' W 122°44'0 0.0
2014-Dec-14 20:33N 45°34' W 122°44'0 0.0
2014-Dec-14 19:33N 45°34' W 122°44'0 0.0
2014-Dec-14 18:33N 45°34' W 122°44'0 0.0
2014-Dec-14 17:33N 45°34' W 122°44'0 0.0
2014-Dec-14 16:33N 45°34' W 122°44'0 0.0
2014-Dec-14 15:33N 45°34' W 122°44'0 0.0
2014-Dec-14 14:33N 45°34' W 122°44'0 0.0
2014-Dec-14 13:33N 45°34' W 122°44'0 0.0
2014-Dec-14 12:33N 45°34' W 122°44'0 0.0
2014-Dec-14 11:33N 45°34' W 122°44'0 0.0
2014-Dec-14 10:33N 45°34' W 122°44'0 0.0
2014-Dec-14 09:33N 45°34' W 122°44'0 0.0
2014-Dec-14 08:33N 45°34' W 122°44'0 0.0
2014-Dec-14 07:33N 45°34' W 122°44'0 0.0
2014-Dec-14 06:33N 45°34' W 122°44'0 0.0
2014-Dec-14 05:33N 45°34' W 122°44'0 0.0
2014-Dec-14 04:33N 45°34' W 122°44'0 0.0
2014-Dec-14 03:33N 45°34' W 122°44'0 0.0
2014-Dec-14 02:33N 45°34' W 122°44'0 0.0
2014-Dec-14 01:27N 45°34' W 122°44'0 0.0
2014-Dec-14 00:33N 45°34' W 122°44'0 0.0
2014-Dec-13 23:27N 45°34' W 122°44'0 0.0
2014-Dec-13 22:33N 45°34' W 122°44'0 0.0
2014-Dec-13 21:33N 45°34' W 122°44'0 0.0
2014-Dec-13 20:33N 45°34' W 122°44'0 0.0
2014-Dec-13 19:33N 45°34' W 122°44'0 0.0
2014-Dec-13 18:33N 45°34' W 122°44'0 0.0
2014-Dec-13 17:33N 45°34' W 122°44'0 0.0
2014-Dec-13 16:33N 45°34' W 122°44'0 0.0
2014-Dec-13 15:33N 45°34' W 122°44'0 0.0
2014-Dec-13 14:33N 45°34' W 122°44'0 0.0
2014-Dec-13 13:33N 45°34' W 122°44'0 0.0
2014-Dec-13 12:33N 45°34' W 122°44'0 0.0
2014-Dec-13 11:33N 45°34' W 122°44'0 0.0
2014-Dec-13 10:33N 45°34' W 122°44'0 0.0
2014-Dec-13 09:33N 45°34' W 122°44'0 0.0
2014-Dec-13 08:33N 45°34' W 122°44'0 0.0
2014-Dec-13 07:33N 45°34' W 122°44'0 0.0
2014-Dec-13 06:33N 45°34' W 122°44'0 0.0
2014-Dec-13 05:33N 45°34' W 122°44'0 0.0
2014-Dec-13 04:33N 45°34' W 122°44'0 0.0
2014-Dec-13 03:27N 45°34' W 122°44'0 0.0
2014-Dec-13 02:33N 45°34' W 122°44'0 0.0
2014-Dec-13 01:27N 45°34' W 122°44'0 0.0
2014-Dec-13 00:33N 45°34' W 122°44'0 0.0
2014-Dec-12 23:30N 45°34' W 122°44'0 0.0
2014-Dec-12 22:33N 45°34' W 122°44'0 0.0
2014-Dec-12 21:33N 45°34' W 122°44'0 0.0
2014-Dec-12 20:33N 45°34' W 122°44'0 0.0
2014-Dec-12 19:33N 45°34' W 122°44'0 0.0
2014-Dec-12 18:33N 45°34' W 122°44'1 1.1
2014-Dec-12 17:33N 45°34' W 122°45'4 4.0
2014-Dec-12 16:31N 45°39' W 122°45'0 0.0
2014-Dec-12 15:25N 45°39' W 122°45'0 0.0
2014-Dec-12 14:28N 45°39' W 122°45'  

Dump ship's entire track history